Time;durP1;ratioP1;P1;durP2;ratioP2;P2;SDS_P1;SDS_P2;PMS_P1;PMS_P2;Temp;Humidity;BMP_temperature;BMP_pressure;BME280_temperature;BME280_humidity;BME280_pressure;Samples;Min_cycle;Max_cycle;Signal;HPM_P1;HPM_P2
2022/08/15 00:01:09;;;;;;;13.80;13.10;;;24.10;50.40;;;;;;5056489;28;20848;-68
2022/08/15 00:03:39;;;;;;;14.57;13.67;;;24.10;51.10;;;;;;5051358;28;20459;-68
2022/08/15 00:06:09;;;;;;;13.33;12.53;;;24.10;50.60;;;;;;5050040;28;20490;-68
2022/08/15 00:08:39;;;;;;;13.77;13.03;;;24.00;50.90;;;;;;5059797;28;20834;-67
2022/08/15 00:11:10;;;;;;;13.20;12.60;;;23.90;51.10;;;;;;5053662;28;20487;-69
2022/08/15 00:13:38;;;;;;;13.67;13.00;;;23.90;51.20;;;;;;5059222;28;21028;-67
2022/08/15 00:16:06;;;;;;;14.20;13.17;;;23.90;51.60;;;;;;5058351;28;20999;-67
2022/08/15 00:18:33;;;;;;;14.57;13.33;;;23.80;52.00;;;;;;5056465;28;20459;-67
2022/08/15 00:21:02;;;;;;;13.80;13.10;;;23.80;52.70;;;;;;5055612;28;20492;-68
2022/08/15 00:23:30;;;;;;;13.97;13.17;;;23.80;52.50;;;;;;5056786;28;20492;-68
2022/08/15 00:25:59;;;;;;;14.30;13.30;;;23.80;52.60;;;;;;5057551;28;20459;-68
2022/08/15 00:28:29;;;;;;;13.70;13.00;;;23.80;52.70;;;;;;5057006;28;20974;-68
2022/08/15 00:30:57;;;;;;;14.23;13.13;;;23.80;52.80;;;;;;5058333;28;20463;-68
2022/08/15 00:33:24;;;;;;;14.07;13.20;;;23.80;53.20;;;;;;5054444;28;20514;-67
2022/08/15 00:35:52;;;;;;;13.60;12.80;;;23.90;53.30;;;;;;5055974;28;20465;-68
2022/08/15 00:38:21;;;;;;;14.20;13.10;;;23.80;53.30;;;;;;5055678;28;20483;-68
2022/08/15 00:43:40;;;;;;;14.03;13.03;;;23.70;53.80;;;;;;5060703;28;20458;-68
2022/08/15 00:46:12;;;;;;;14.10;12.93;;;23.80;54.00;;;;;;5060046;28;20472;-67
2022/08/15 00:48:42;;;;;;;14.70;13.57;;;23.70;54.50;;;;;;5057116;28;20471;-68
2022/08/15 00:51:12;;;;;;;14.63;13.63;;;23.80;54.80;;;;;;5057735;28;20478;-67
2022/08/15 00:53:40;;;;;;;13.93;13.23;;;23.70;55.20;;;;;;5062366;28;20486;-67
2022/08/15 00:56:09;;;;;;;13.93;13.07;;;23.70;55.60;;;;;;5050413;28;20478;-67
2022/08/15 00:58:39;;;;;;;13.60;12.80;;;23.80;55.80;;;;;;5053560;28;20463;-68
2022/08/15 01:01:08;;;;;;;14.37;13.53;;;23.80;56.20;;;;;;5053540;28;20460;-67
2022/08/15 01:03:40;;;;;;;14.47;13.43;;;23.80;56.70;;;;;;5055477;28;20467;-67
2022/08/15 01:06:08;;;;;;;14.90;13.60;;;23.80;57.00;;;;;;5056211;28;21042;-67
2022/08/15 01:08:39;;;;;;;15.00;13.80;;;23.80;57.60;;;;;;5058601;28;21058;-67
2022/08/15 01:11:10;;;;;;;15.30;14.03;;;23.80;57.80;;;;;;5055975;28;20451;-69
2022/08/15 01:13:40;;;;;;;14.10;13.20;;;23.80;58.00;;;;;;5054406;28;20730;-68
2022/08/15 01:16:07;;;;;;;14.73;13.83;;;23.90;58.20;;;;;;5057020;28;20483;-68
2022/08/15 01:18:34;;;;;;;14.00;13.03;;;23.90;59.20;;;;;;5058182;28;20761;-68
2022/08/15 01:21:07;;;;;;;15.13;14.00;;;23.80;59.00;;;;;;5055507;28;20974;-68
2022/08/15 01:23:41;;;;;;;14.00;13.20;;;23.90;59.20;;;;;;5058725;28;20466;-67
2022/08/15 01:26:10;;;;;;;18.43;13.30;;;23.90;59.40;;;;;;5058334;28;20463;-67
2022/08/15 01:28:42;;;;;;;14.50;13.57;;;23.90;59.60;;;;;;5051110;28;20461;-69
2022/08/15 01:31:11;;;;;;;15.20;13.60;;;23.90;59.80;;;;;;5055221;28;20518;-68
2022/08/15 01:33:41;;;;;;;14.57;13.77;;;23.90;59.90;;;;;;5055400;28;20503;-68
2022/08/15 01:36:10;;;;;;;13.87;13.00;;;23.90;60.00;;;;;;5056117;28;20575;-68
2022/08/15 01:38:41;;;;;;;14.50;13.60;;;23.90;60.50;;;;;;5053529;28;20456;-69
2022/08/15 01:41:18;;;;;;;14.40;13.37;;;24.00;60.70;;;;;;5059044;28;21046;-68
2022/08/15 01:43:52;;;;;;;13.73;12.83;;;23.90;61.00;;;;;;5053473;28;20460;-68
2022/08/15 01:46:23;;;;;;;14.80;13.70;;;23.90;61.20;;;;;;5059806;28;20799;-67
2022/08/15 01:48:58;;;;;;;14.33;12.93;;;23.90;61.30;;;;;;5053795;28;20495;-68
2022/08/15 01:51:26;;;;;;;13.73;12.83;;;24.00;61.40;;;;;;5055677;28;20466;-67
2022/08/15 01:53:59;;;;;;;13.77;13.07;;;24.00;61.50;;;;;;5053277;28;20506;-68
2022/08/15 01:56:31;;;;;;;14.07;12.90;;;24.00;61.90;;;;;;5059435;28;21027;-68
2022/08/15 01:59:02;;;;;;;14.20;13.30;;;23.90;62.20;;;;;;5054091;28;20538;-68
2022/08/15 02:01:41;;;;;;;13.67;12.87;;;23.80;62.90;;;;;;5052624;28;20455;-68
2022/08/15 02:04:08;;;;;;;14.27;13.30;;;23.80;63.40;;;;;;5049893;28;20742;-67
2022/08/15 02:06:35;;;;;;;13.60;12.83;;;23.80;63.60;;;;;;5055658;28;20495;-68
2022/08/15 02:09:02;;;;;;;14.60;13.37;;;23.80;63.80;;;;;;5055894;28;20477;-67
2022/08/15 02:11:31;;;;;;;14.37;13.47;;;23.80;64.10;;;;;;5055509;28;20459;-68
2022/08/15 02:13:59;;;;;;;14.60;13.80;;;23.70;64.40;;;;;;5051725;28;20488;-67
2022/08/15 02:16:31;;;;;;;14.50;13.20;;;23.70;64.40;;;;;;5058929;28;21000;-67
2022/08/15 02:18:59;;;;;;;14.20;13.00;;;23.70;64.70;;;;;;5056580;28;20467;-67
2022/08/15 02:21:26;;;;;;;14.33;12.90;;;23.60;64.80;;;;;;5056764;28;20472;-68
2022/08/15 02:23:54;;;;;;;13.80;12.70;;;23.60;64.90;;;;;;5056952;28;20473;-68
2022/08/15 02:26:20;;;;;;;13.90;13.17;;;23.60;65.70;;;;;;5056675;28;20785;-68
2022/08/15 02:28:49;;;;;;;13.83;13.03;;;23.40;66.90;;;;;;5054750;28;20993;-67
2022/08/15 02:31:20;;;;;;;13.50;12.63;;;23.30;67.10;;;;;;5057882;28;20468;-69
2022/08/15 02:33:50;;;;;;;13.90;13.00;;;23.30;67.50;;;;;;5059476;28;20487;-67
2022/08/15 02:36:19;;;;;;;13.73;13.00;;;23.20;68.20;;;;;;5049158;28;20460;-68
2022/08/15 02:38:49;;;;;;;14.10;13.20;;;23.20;68.40;;;;;;5054503;28;20459;-68
2022/08/15 02:41:20;;;;;;;14.03;13.23;;;23.20;69.10;;;;;;5054185;28;20460;-68
2022/08/15 02:43:48;;;;;;;14.33;13.53;;;23.10;69.20;;;;;;5053590;28;20495;-68
2022/08/15 02:46:16;;;;;;;14.70;13.23;;;23.10;69.90;;;;;;5050151;28;20464;-68
2022/08/15 02:48:45;;;;;;;14.30;13.57;;;23.10;70.10;;;;;;5053860;28;20716;-68
2022/08/15 02:51:15;;;;;;;14.13;13.43;;;23.00;70.40;;;;;;5055692;28;21012;-67
2022/08/15 02:53:44;;;;;;;14.73;14.03;;;23.00;70.70;;;;;;5054097;28;20909;-68
2022/08/15 02:56:12;;;;;;;14.13;13.10;;;23.00;71.00;;;;;;5052999;28;20957;-68
2022/08/15 02:58:41;;;;;;;13.63;12.83;;;22.90;71.70;;;;;;5054400;28;20455;-68
2022/08/15 03:01:10;;;;;;;13.90;13.23;;;22.90;71.80;;;;;;5049975;28;20483;-69
2022/08/15 03:03:39;;;;;;;14.30;13.50;;;23.00;72.00;;;;;;5054542;28;20462;-68
2022/08/15 03:06:08;;;;;;;14.23;13.33;;;22.90;72.60;;;;;;5057384;28;20489;-68
2022/08/15 03:08:35;;;;;;;13.17;12.47;;;22.80;73.50;;;;;;5056924;28;20461;-69
2022/08/15 03:11:03;;;;;;;13.70;13.10;;;22.60;74.40;;;;;;5048952;28;20463;-68
2022/08/15 03:13:31;;;;;;;14.30;13.60;;;22.70;75.00;;;;;;5058533;28;20541;-69
2022/08/15 03:16:00;;;;;;;15.57;14.17;;;22.60;75.50;;;;;;5055888;28;20486;-68
2022/08/15 03:18:32;;;;;;;14.17;13.47;;;22.80;75.70;;;;;;5054404;28;20464;-68
2022/08/15 03:21:00;;;;;;;14.50;13.50;;;22.70;76.30;;;;;;5055477;28;20455;-69
2022/08/15 03:23:32;;;;;;;15.30;14.00;;;22.60;77.10;;;;;;5057852;28;20516;-68
2022/08/15 03:26:01;;;;;;;14.17;13.27;;;22.70;77.10;;;;;;5054853;28;20463;-68
2022/08/15 03:28:31;;;;;;;14.30;13.50;;;22.70;77.20;;;;;;5057228;28;20508;-68
2022/08/15 03:30:59;;;;;;;13.90;13.03;;;22.70;77.60;;;;;;5049726;28;20514;-68
2022/08/15 03:33:28;;;;;;;14.70;13.80;;;22.80;78.70;;;;;;5054316;28;20961;-68
2022/08/15 03:35:56;;;;;;;14.17;13.27;;;22.70;78.40;;;;;;5055011;28;20570;-68
2022/08/15 03:38:23;;;;;;;14.27;13.57;;;22.80;78.70;;;;;;5061257;28;20472;-68
2022/08/15 03:40:52;;;;;;;14.60;13.50;;;22.80;79.30;;;;;;5056627;28;20467;-69
2022/08/15 03:43:21;;;;;;;15.07;13.67;;;22.70;79.90;;;;;;5057026;28;20483;-68
2022/08/15 03:45:52;;;;;;;14.70;13.70;;;22.80;80.10;;;;;;5055711;28;20467;-69
2022/08/15 03:48:20;;;;;;;15.00;13.90;;;22.80;80.50;;;;;;5051864;28;20467;-68
2022/08/15 03:50:52;;;;;;;14.97;13.77;;;22.80;80.20;;;;;;5055242;28;20534;-68
2022/08/15 03:53:19;;;;;;;15.00;13.90;;;23.00;80.00;;;;;;5049906;28;20499;-67
2022/08/15 03:55:47;;;;;;;14.67;13.57;;;23.00;80.00;;;;;;5051899;28;20487;-68
2022/08/15 03:58:15;;;;;;;15.13;13.97;;;23.00;80.10;;;;;;5056369;28;20464;-68
2022/08/15 04:00:45;;;;;;;15.10;14.00;;;23.10;80.20;;;;;;5052484;28;20464;-68
2022/08/15 04:03:14;;;;;;;14.80;14.10;;;23.10;80.10;;;;;;5033762;28;20475;-68
2022/08/15 04:05:43;;;;;;;14.83;13.87;;;23.00;80.60;;;;;;5027634;28;20472;-68
2022/08/15 04:08:13;;;;;;;14.83;13.70;;;23.00;81.00;;;;;;5027050;28;20459;-68
2022/08/15 04:10:40;;;;;;;14.67;13.67;;;23.00;81.20;;;;;;5029796;28;20518;-69
2022/08/15 04:13:10;;;;;;;14.87;13.63;;;23.00;81.50;;;;;;5028366;28;20757;-69
2022/08/15 04:15:38;;;;;;;14.10;13.40;;;23.00;81.70;;;;;;5027621;28;20499;-69
2022/08/15 04:18:05;;;;;;;15.00;13.90;;;22.90;82.90;;;;;;5027406;28;20464;-69
2022/08/15 04:20:32;;;;;;;14.57;13.43;;;22.90;83.30;;;;;;5027637;28;20504;-69
2022/08/15 04:23:00;;;;;;;15.00;14.17;;;23.00;83.40;;;;;;5029305;28;20465;-69
2022/08/15 04:25:31;;;;;;;14.70;13.87;;;23.00;83.60;;;;;;5027477;28;20467;-69
2022/08/15 04:28:03;;;;;;;15.80;14.60;;;23.00;84.10;;;;;;5029951;28;20505;-69
2022/08/15 04:30:31;;;;;;;14.20;13.50;;;22.80;85.20;;;;;;5049238;28;20463;-69
2022/08/15 04:33:09;;;;;;;14.40;13.60;;;22.90;85.30;;;;;;5050809;28;20462;-69
2022/08/15 04:35:36;;;;;;;14.53;13.37;;;22.90;85.60;;;;;;5048843;28;20494;-69
2022/08/15 04:38:03;;;;;;;14.47;13.60;;;22.80;86.60;;;;;;5027869;28;20514;-69
2022/08/15 04:40:32;;;;;;;14.00;13.13;;;22.80;87.70;;;;;;5027505;28;20467;-69
2022/08/15 04:42:59;;;;;;;15.27;13.93;;;22.90;88.00;;;;;;5028502;28;20455;-69
2022/08/15 04:45:28;;;;;;;15.00;14.00;;;22.90;88.10;;;;;;5027484;28;20483;-69
2022/08/15 04:47:55;;;;;;;15.70;14.50;;;22.90;88.40;;;;;;5027708;28;20462;-69
2022/08/15 04:50:22;;;;;;;14.23;13.23;;;23.00;88.30;;;;;;5029043;28;20491;-69
2022/08/15 04:52:53;;;;;;;14.90;13.90;;;22.90;88.20;;;;;;5029495;28;20459;-69
2022/08/15 04:55:22;;;;;;;14.50;13.50;;;22.90;88.50;;;;;;5030502;28;20495;-70
2022/08/15 04:57:51;;;;;;;14.80;13.50;;;23.00;88.50;;;;;;5029474;28;20672;-68
2022/08/15 05:00:20;;;;;;;14.57;13.63;;;23.10;87.90;;;;;;5029428;28;20455;-68
2022/08/15 05:02:59;;;;;;;14.40;13.43;;;23.20;87.90;;;;;;5028516;28;20460;-69
2022/08/15 05:05:26;;;;;;;15.03;14.13;;;23.20;88.00;;;;;;5030511;28;20467;-70
2022/08/15 05:07:52;;;;;;;14.90;13.90;;;23.20;89.30;;;;;;5029972;28;20476;-69
2022/08/15 05:10:19;;;;;;;15.50;14.50;;;23.20;88.80;;;;;;5029895;28;20452;-69
2022/08/15 05:12:47;;;;;;;15.10;14.30;;;23.10;89.20;;;;;;5030429;28;21095;-69
2022/08/15 05:15:17;;;;;;;16.07;15.00;;;23.10;89.50;;;;;;5028863;28;21029;-69
2022/08/15 05:17:45;;;;;;;15.93;14.90;;;23.00;90.10;;;;;;5030082;28;20460;-69
2022/08/15 05:20:12;;;;;;;16.70;15.53;;;23.10;90.10;;;;;;5029268;28;21091;-69
2022/08/15 05:22:55;;;;;;;17.07;15.37;;;23.20;90.20;;;;;;5029310;28;21012;-69
2022/08/15 05:25:23;;;;;;;16.77;15.60;;;23.10;90.50;;;;;;5030278;28;20466;-69
2022/08/15 05:27:51;;;;;;;16.47;15.33;;;23.10;90.90;;;;;;5029132;28;20463;-69
2022/08/15 05:30:20;;;;;;;15.70;14.80;;;23.10;91.00;;;;;;5029594;28;20467;-69
2022/08/15 05:32:47;;;;;;;17.23;15.77;;;23.20;90.90;;;;;;5029377;28;20677;-69
2022/08/15 05:35:15;;;;;;;15.40;14.50;;;23.20;91.20;;;;;;5029871;28;20674;-70
2022/08/15 05:37:44;;;;;;;16.57;15.47;;;23.20;91.40;;;;;;5029873;28;21112;-69
2022/08/15 05:40:11;;;;;;;16.10;15.10;;;23.20;91.60;;;;;;5029617;28;21131;-69
2022/08/15 05:42:45;;;;;;;19.90;15.20;;;23.20;91.70;;;;;;5027505;28;20460;-69
2022/08/15 05:45:24;;;;;;;17.17;15.17;;;23.20;92.30;;;;;;5029496;28;20565;-68
2022/08/15 05:48:03;;;;;;;16.33;15.20;;;23.20;92.50;;;;;;5028877;28;20621;-69
2022/08/15 05:50:32;;;;;;;16.83;15.73;;;23.20;92.60;;;;;;5028085;28;20501;-68
2022/08/15 05:53:09;;;;;;;16.77;15.57;;;23.20;92.90;;;;;;5028966;28;20571;-69
2022/08/15 05:55:45;;;;;;;17.50;15.40;;;23.20;93.10;;;;;;5028617;28;20518;-68
2022/08/15 05:58:42;;;;;;;16.70;15.53;;;23.30;93.10;;;;;;5029629;28;20486;-67
2022/08/15 06:01:15;;;;;;;16.43;15.30;;;23.30;93.30;;;;;;5006259;28;20460;-68
2022/08/15 06:03:45;;;;;;;16.80;15.80;;;23.20;93.70;;;;;;5025666;28;21740;-67
2022/08/15 06:06:14;;;;;;;17.30;16.00;;;23.30;93.80;;;;;;5026597;28;22603;-68
2022/08/15 06:08:46;;;;;;;16.40;15.53;;;23.40;93.70;;;;;;5026213;28;20764;-67
2022/08/15 06:11:16;;;;;;;16.50;15.70;;;23.40;93.80;;;;;;5026891;28;20468;-67
2022/08/15 06:13:48;;;;;;;17.70;16.60;;;23.40;94.10;;;;;;5025567;28;20543;-67
2022/08/15 06:16:24;;;;;;;17.47;16.37;;;23.60;93.80;;;;;;5025303;28;20502;-67
2022/08/15 06:18:52;;;;;;;16.50;15.60;;;23.50;94.30;;;;;;5025690;28;20459;-67
2022/08/15 06:21:30;;;;;;;17.07;15.93;;;23.50;94.40;;;;;;5025985;28;20470;-68
2022/08/15 06:24:10;;;;;;;17.67;16.20;;;23.50;94.70;;;;;;5027209;28;22705;-68
2022/08/15 06:26:46;;;;;;;17.00;16.10;;;23.60;94.80;;;;;;5050487;28;21106;-68
2022/08/15 06:29:26;;;;;;;16.20;15.30;;;23.50;95.30;;;;;;5033826;28;20472;-68
2022/08/15 06:32:03;;;;;;;17.63;16.20;;;23.50;95.70;;;;;;5025662;28;20796;-68
2022/08/15 06:34:40;;;;;;;17.50;16.40;;;23.70;95.50;;;;;;5025724;28;20475;-68
2022/08/15 06:37:14;;;;;;;17.07;15.77;;;23.80;95.70;;;;;;5024529;28;20535;-67
2022/08/15 06:39:50;;;;;;;17.23;15.80;;;23.90;96.20;;;;;;5025251;28;20465;-68
2022/08/15 06:42:25;;;;;;;17.53;16.23;;;23.80;96.90;;;;;;5024756;28;20467;-69
2022/08/15 06:44:56;;;;;;;17.47;16.17;;;23.80;97.40;;;;;;5027396;28;20480;-69
2022/08/15 06:47:28;;;;;;;16.90;15.60;;;23.60;98.50;;;;;;5027083;28;20678;-68
2022/08/15 06:50:03;;;;;;;16.90;16.00;;;23.60;99.00;;;;;;5026064;28;20488;-69
2022/08/15 06:52:31;;;;;;;16.53;15.70;;;23.60;99.40;;;;;;5026021;28;20686;-69
2022/08/15 06:54:59;;;;;;;17.37;15.70;;;23.60;99.90;;;;;;5025871;28;20486;-69
2022/08/15 06:57:33;;;;;;;16.57;15.57;;;23.60;99.90;;;;;;5025586;28;20823;-67
2022/08/15 07:00:08;;;;;;;16.80;15.70;;;23.60;99.90;;;;;;5024913;28;20475;-68
2022/08/15 07:02:55;;;;;;;16.60;15.70;;;23.50;99.90;;;;;;5049564;28;20460;-68
2022/08/15 07:05:28;;;;;;;16.00;14.83;;;23.60;99.90;;;;;;5056257;28;21080;-68
2022/08/15 07:08:01;;;;;;;16.37;15.37;;;23.60;99.90;;;;;;5055218;28;20517;-68
2022/08/15 07:10:35;;;;;;;17.70;16.30;;;23.40;99.90;;;;;;5050531;28;20670;-68
2022/08/15 07:13:05;;;;;;;17.20;15.90;;;23.40;99.90;;;;;;5025717;28;20464;-68
2022/08/15 07:15:45;;;;;;;16.17;15.17;;;23.40;99.90;;;;;;5025530;28;20938;-68
2022/08/15 07:18:19;;;;;;;16.40;15.40;;;23.50;99.90;;;;;;5023512;28;20485;-69
2022/08/15 07:20:46;;;;;;;16.40;15.50;;;23.60;99.90;;;;;;5025858;28;21133;-68
2022/08/15 07:23:19;;;;;;;17.13;15.70;;;23.50;99.90;;;;;;5026669;28;21177;-70
2022/08/15 07:25:47;;;;;;;16.40;15.07;;;23.50;99.90;;;;;;5026378;28;20474;-68
2022/08/15 07:28:18;;;;;;;16.13;14.80;;;23.50;99.90;;;;;;5025769;28;20464;-67
2022/08/15 07:30:48;;;;;;;16.73;15.63;;;23.40;99.90;;;;;;5025928;28;20909;-68
2022/08/15 07:33:35;;;;;;;16.13;15.20;;;23.60;99.90;;;;;;5026365;28;20466;-69
2022/08/15 07:36:07;;;;;;;16.53;15.50;;;23.60;99.90;;;;;;5026424;28;21159;-70
2022/08/15 07:38:34;;;;;;;16.77;15.43;;;23.70;99.90;;;;;;5026514;28;20588;-69
2022/08/15 07:41:22;;;;;;;19.60;14.93;;;23.70;99.90;;;;;;5027186;28;20470;-69
2022/08/15 07:43:50;;;;;;;17.37;16.03;;;23.70;99.90;;;;;;5025808;28;21022;-68
2022/08/15 07:46:20;;;;;;;15.70;14.77;;;23.60;99.90;;;;;;5026658;28;20562;-69
2022/08/15 07:48:58;;;;;;;16.43;15.50;;;23.70;99.90;;;;;;5026794;28;20962;-69
2022/08/15 07:51:28;;;;;;;17.43;16.23;;;23.70;99.90;;;;;;5026229;28;20854;-67
2022/08/15 07:53:58;;;;;;;16.67;15.53;;;23.70;99.90;;;;;;5025878;28;20550;-68
2022/08/15 07:56:26;;;;;;;15.97;14.83;;;23.60;99.90;;;;;;5025687;28;20491;-68
2022/08/15 07:58:55;;;;;;;16.47;15.30;;;23.70;99.90;;;;;;5025828;28;20480;-68
2022/08/15 08:01:24;;;;;;;17.33;16.07;;;23.70;99.90;;;;;;5025975;28;20912;-69
2022/08/15 08:03:57;;;;;;;17.70;16.10;;;23.60;99.90;;;;;;5025075;28;20466;-68
2022/08/15 08:06:30;;;;;;;17.07;15.57;;;23.60;99.90;;;;;;5025345;28;21014;-69
2022/08/15 08:09:04;;;;;;;16.17;15.10;;;23.70;99.90;;;;;;5015950;28;21026;-67
2022/08/15 08:11:46;;;;;;;16.70;15.67;;;23.80;99.90;;;;;;5037502;28;20465;-68
2022/08/15 08:14:25;;;;;;;17.10;15.70;;;24.10;99.90;;;;;;5045170;28;20966;-69
2022/08/15 08:16:55;;;;;;;16.67;15.50;;;24.40;99.90;;;;;;5024460;28;20800;-69
2022/08/15 08:19:33;;;;;;;17.03;15.90;;;24.50;99.90;;;;;;5022924;28;20902;-68
2022/08/15 08:22:12;;;;;;;17.70;16.43;;;24.50;99.90;;;;;;5020558;28;20920;-69
2022/08/15 08:24:50;;;;;;;16.23;15.33;;;24.50;99.90;;;;;;5022923;28;20452;-69
2022/08/15 08:27:29;;;;;;;17.07;15.87;;;24.70;99.90;;;;;;5025964;28;21540;-68
2022/08/15 08:30:03;;;;;;;17.00;15.70;;;24.70;99.90;;;;;;5025664;28;20983;-69
2022/08/15 08:32:36;;;;;;;17.20;16.20;;;24.50;99.90;;;;;;5026411;28;20801;-69
2022/08/15 08:35:15;;;;;;;17.70;16.30;;;24.80;99.90;;;;;;5040788;28;20467;-69
2022/08/15 08:37:49;;;;;;;17.17;16.17;;;24.30;99.90;;;;;;5051709;28;20512;-69
2022/08/15 08:43:23;;;;;;;17.77;16.47;;;24.20;99.90;;;;;;5026991;28;20490;-69
2022/08/15 08:46:00;;;;;;;17.50;16.50;;;24.30;99.90;;;;;;5025315;28;20467;-69
2022/08/15 08:48:41;;;;;;;17.20;16.10;;;24.40;99.90;;;;;;5026839;28;21156;-69
2022/08/15 08:51:21;;;;;;;16.70;15.70;;;24.30;99.90;;;;;;5027720;28;21108;-70
2022/08/15 08:53:57;;;;;;;17.23;16.03;;;24.30;99.90;;;;;;5027840;28;20887;-68
2022/08/15 08:56:28;;;;;;;18.80;15.90;;;24.40;99.90;;;;;;5027157;28;20487;-68
2022/08/15 08:59:02;;;;;;;16.53;15.40;;;24.50;99.90;;;;;;5026929;28;20563;-69
2022/08/15 09:01:31;;;;;;;16.80;15.70;;;24.70;99.90;;;;;;5026806;28;21838;-68
2022/08/15 09:04:02;;;;;;;16.87;15.67;;;24.90;99.90;;;;;;5027691;28;20469;-69
2022/08/15 09:06:36;;;;;;;16.20;15.30;;;24.60;99.90;;;;;;5025799;28;20511;-68
2022/08/15 09:09:08;;;;;;;17.03;16.03;;;24.80;99.90;;;;;;5028200;28;20516;-68
2022/08/15 09:11:42;;;;;;;16.97;15.83;;;24.80;99.90;;;;;;5026849;28;20478;-68
2022/08/15 09:14:17;;;;;;;17.37;16.20;;;24.70;99.90;;;;;;5027698;28;20472;-68
2022/08/15 09:16:45;;;;;;;17.63;16.33;;;24.90;99.90;;;;;;5029305;28;20479;-68
2022/08/15 09:19:17;;;;;;;17.90;16.80;;;24.90;99.90;;;;;;5028294;28;20455;-69
2022/08/15 09:21:47;;;;;;;16.80;15.80;;;25.10;99.90;;;;;;5028537;28;21508;-69
2022/08/15 09:24:15;;;;;;;18.53;17.33;;;25.10;99.90;;;;;;5029010;28;20464;-70
2022/08/15 09:26:49;;;;;;;17.40;16.30;;;24.80;99.90;;;;;;5028922;28;20471;-68
2022/08/15 09:29:23;;;;;;;16.87;15.87;;;24.80;99.90;;;;;;5028793;28;21080;-69
2022/08/15 09:32:10;;;;;;;17.40;16.00;;;25.00;99.90;;;;;;5028752;28;20524;-69
2022/08/15 09:35:15;;;;;;;17.87;16.30;;;24.70;99.90;;;;;;5029464;28;20463;-69
2022/08/15 09:38:14;;;;;;;20.30;17.50;;;24.90;99.90;;;;;;5008412;28;20492;-69
2022/08/15 09:40:55;;;;;;;17.30;16.00;;;25.10;99.90;;;;;;5029599;28;20962;-68
2022/08/15 09:44:14;;;;;;;17.20;16.00;;;25.10;99.90;;;;;;5027501;28;20463;-69
2022/08/15 09:47:15;;;;;;;18.93;17.10;;;25.30;99.90;;;;;;4956794;28;21753;-69
2022/08/15 09:50:23;;;;;;;17.97;16.67;;;25.50;99.90;;;;;;4958596;28;20477;-68
2022/08/15 09:53:03;;;;;;;17.83;16.70;;;25.70;99.90;;;;;;4968964;28;21310;-69
2022/08/15 09:55:44;;;;;;;17.60;16.50;;;25.40;99.90;;;;;;5018345;28;20936;-69
2022/08/15 09:58:20;;;;;;;18.20;16.80;;;25.40;99.90;;;;;;5028248;28;20464;-68
2022/08/15 10:00:58;;;;;;;17.50;16.40;;;25.60;99.90;;;;;;5027215;28;20468;-68
2022/08/15 10:03:49;;;;;;;19.27;17.60;;;25.90;99.90;;;;;;5027171;28;20467;-69
2022/08/15 10:06:19;;;;;;;18.27;16.70;;;26.30;99.90;;;;;;5027079;28;20470;-69
2022/08/15 10:09:11;;;;;;;18.70;17.40;;;26.70;99.90;;;;;;5028361;28;21561;-70
2022/08/15 10:12:05;;;;;;;17.90;16.90;;;27.50;99.90;;;;;;5028124;28;20474;-69
2022/08/15 10:14:42;;;;;;;18.60;17.20;;;27.70;99.90;;;;;;5027997;28;20491;-69
2022/08/15 10:17:37;;;;;;;18.03;16.47;;;27.40;99.90;;;;;;5025766;28;20487;-69
2022/08/15 10:20:38;;;;;;;17.73;16.23;;;27.30;99.90;;;;;;5026680;28;20546;-68
2022/08/15 10:23:11;;;;;;;17.57;16.53;;;27.20;99.90;;;;;;5026670;28;20470;-70
2022/08/15 10:25:41;;;;;;;17.83;16.77;;;27.00;99.90;;;;;;5025550;28;20503;-69
2022/08/15 10:28:21;;;;;;;17.70;16.50;;;27.10;99.90;;;;;;5029615;28;21047;-69
2022/08/15 10:31:20;;;;;;;16.93;15.93;;;27.10;99.90;;;;;;5053198;28;20468;-68
2022/08/15 10:33:53;;;;;;;17.33;16.33;;;26.90;99.90;;;;;;5051015;28;20464;-69
2022/08/15 10:36:26;;;;;;;17.77;16.03;;;26.90;99.90;;;;;;5050894;28;20492;-69
2022/08/15 10:39:08;;;;;;;17.07;15.93;;;26.90;99.90;;;;;;5034958;28;20466;-69
2022/08/15 10:41:47;;;;;;;17.00;15.90;;;26.60;99.90;;;;;;5027630;28;20847;-68
2022/08/15 10:44:22;;;;;;;17.67;16.40;;;26.50;99.90;;;;;;5026086;28;20471;-69
2022/08/15 10:47:15;;;;;;;17.90;16.70;;;26.20;99.90;;;;;;5027826;28;20466;-69
2022/08/15 10:49:51;;;;;;;17.77;16.57;;;26.30;99.90;;;;;;5027000;28;20519;-70
2022/08/15 10:52:32;;;;;;;18.60;17.30;;;26.40;99.90;;;;;;5026530;28;20754;-69
2022/08/15 10:55:20;;;;;;;18.23;17.00;;;26.60;99.90;;;;;;5027558;28;20471;-68
2022/08/15 10:57:53;;;;;;;18.00;16.83;;;26.70;99.90;;;;;;5026835;28;20491;-67
2022/08/15 11:00:39;;;;;;;18.00;16.80;;;26.70;99.90;;;;;;5027514;28;20460;-67
2022/08/15 11:03:11;;;;;;;18.07;16.90;;;26.10;99.90;;;;;;5053605;28;20463;-68
2022/08/15 11:05:38;;;;;;;18.10;16.80;;;25.90;99.90;;;;;;5051888;28;20963;-67
2022/08/15 11:08:13;;;;;;;18.10;16.83;;;25.70;99.90;;;;;;5027817;28;20551;-67
2022/08/15 11:10:40;;;;;;;17.90;16.67;;;25.50;99.90;;;;;;5025873;28;20521;-68
2022/08/15 11:13:13;;;;;;;17.73;16.73;;;25.30;99.90;;;;;;5026397;28;20459;-68
2022/08/15 11:15:54;;;;;;;17.87;16.57;;;25.30;99.90;;;;;;5026901;28;20491;-67
2022/08/15 11:18:28;;;;;;;18.07;16.90;;;25.40;99.90;;;;;;5026233;28;20503;-68
2022/08/15 11:21:04;;;;;;;17.87;16.47;;;25.50;99.90;;;;;;5025653;28;20605;-69
2022/08/15 11:23:36;;;;;;;17.57;16.57;;;25.70;99.90;;;;;;5026681;28;20958;-69
2022/08/15 11:26:04;;;;;;;18.63;17.23;;;25.20;99.90;;;;;;5026860;28;20937;-68
2022/08/15 11:28:33;;;;;;;17.43;16.53;;;25.30;99.90;;;;;;5035484;28;20513;-67
2022/08/15 11:31:04;;;;;;;18.73;17.50;;;25.40;99.90;;;;;;5050376;28;20468;-68
2022/08/15 11:33:41;;;;;;;20.67;19.30;;;25.10;99.90;;;;;;5046335;28;20472;-68
2022/08/15 11:36:12;;;;;;;23.23;21.47;;;24.90;99.90;;;;;;5026344;28;20857;-69
2022/08/15 11:38:47;;;;;;;28.37;25.73;;;24.80;99.90;;;;;;5026577;28;20471;-68
2022/08/15 11:41:22;;;;;;;29.10;26.63;;;24.50;99.90;;;;;;5029261;28;20864;-69
2022/08/15 11:43:52;;;;;;;30.23;27.73;;;24.30;99.90;;;;;;5053896;28;20467;-70
2022/08/15 11:46:20;;;;;;;31.30;28.80;;;24.10;99.90;;;;;;5054352;28;20466;-68
2022/08/15 11:48:51;;;;;;;31.03;28.63;;;23.80;99.90;;;;;;5047461;28;20467;-70
2022/08/15 11:51:27;;;;;;;30.90;27.93;;;23.70;99.90;;;;;;5026412;28;20479;-69
2022/08/15 11:54:19;;;;;;;30.63;28.20;;;23.50;99.90;;;;;;5025645;28;20838;-70
2022/08/15 11:56:48;;;;;;;28.70;26.50;;;23.50;99.90;;;;;;5026150;28;20492;-69
2022/08/15 11:59:21;;;;;;;25.30;23.23;;;23.40;99.90;;;;;;5026845;28;20474;-68
2022/08/15 12:02:13;;;;;;;24.33;22.33;;;23.30;99.90;;;;;;5027956;28;21209;-68
2022/08/15 12:04:45;;;;;;;22.37;20.67;;;23.10;99.90;;;;;;5029078;28;20470;-68
2022/08/15 12:07:17;;;;;;;24.30;22.23;;;23.20;99.90;;;;;;5030817;28;21024;-68
2022/08/15 12:09:57;;;;;;;25.13;23.10;;;23.20;99.90;;;;;;5031633;28;20967;-69
2022/08/15 12:12:30;;;;;;;27.40;25.40;;;23.20;99.90;;;;;;5031468;28;20468;-69
2022/08/15 12:15:03;;;;;;;31.70;29.00;;;23.10;99.90;;;;;;5031397;28;20502;-69
2022/08/15 12:17:32;;;;;;;31.97;29.30;;;23.10;99.90;;;;;;5031466;28;20499;-68
2022/08/15 12:20:00;;;;;;;30.30;27.83;;;22.90;99.90;;;;;;5031753;28;20468;-68
2022/08/15 12:22:30;;;;;;;31.33;28.73;;;23.00;99.90;;;;;;5030477;28;20507;-68
2022/08/15 12:24:58;;;;;;;30.27;27.77;;;22.80;99.90;;;;;;5030769;28;20541;-68
2022/08/15 12:27:25;;;;;;;31.90;29.20;;;22.80;99.90;;;;;;5031594;28;20970;-68
2022/08/15 12:29:52;;;;;;;31.17;28.37;;;22.80;99.90;;;;;;5029537;28;20970;-68
2022/08/15 12:32:21;;;;;;;29.80;27.33;;;23.00;99.90;;;;;;5033870;28;20452;-69
2022/08/15 12:34:51;;;;;;;29.30;26.90;;;23.40;99.90;;;;;;5029590;28;20586;-65
2022/08/15 12:37:20;;;;;;;27.83;25.47;;;23.40;99.90;;;;;;5031574;28;20487;-66
2022/08/15 12:39:48;;;;;;;25.40;23.50;;;23.50;99.90;;;;;;5030482;28;20570;-67
2022/08/15 12:42:18;;;;;;;21.40;19.80;;;23.70;99.90;;;;;;5029742;28;20498;-67
2022/08/15 12:44:47;;;;;;;18.00;16.70;;;23.60;99.90;;;;;;5030657;28;20459;-67
2022/08/15 12:47:14;;;;;;;17.77;16.37;;;23.90;99.90;;;;;;5029800;28;20455;-68
2022/08/15 12:49:43;;;;;;;18.30;16.50;;;24.20;99.90;;;;;;5030717;28;20478;-66
2022/08/15 12:52:10;;;;;;;19.23;17.93;;;24.70;99.90;;;;;;5030549;28;21067;-67
2022/08/15 12:54:38;;;;;;;20.50;19.20;;;24.90;99.90;;;;;;5031161;28;20984;-67
2022/08/15 12:57:05;;;;;;;21.60;20.20;;;25.20;99.90;;;;;;5030836;28;20863;-68
2022/08/15 12:59:33;;;;;;;22.50;21.00;;;25.80;99.90;;;;;;5030012;28;20887;-68
2022/08/15 13:02:00;;;;;;;20.30;18.83;;;26.60;99.90;;;;;;5029589;28;20557;-68